sensor_id;sensor_type;location;lat;lon;timestamp;temperature;humidity
39033;DHT22;24794;51.982;5.878;2023-02-28T00:00:04;4.50;99.10
39033;DHT22;24794;51.982;5.878;2023-02-28T00:01:12;4.60;99.20
39033;DHT22;24794;51.982;5.878;2023-02-28T00:02:13;4.60;99.20
39033;DHT22;24794;51.982;5.878;2023-02-28T00:03:14;4.60;99.10
39033;DHT22;24794;51.982;5.878;2023-02-28T00:04:14;4.60;99.20
39033;DHT22;24794;51.982;5.878;2023-02-28T00:05:19;4.60;99.20
39033;DHT22;24794;51.982;5.878;2023-02-28T00:06:19;4.60;99.20
39033;DHT22;24794;51.982;5.878;2023-02-28T00:07:21;4.60;99.20
39033;DHT22;24794;51.982;5.878;2023-02-28T00:08:21;4.60;99.20
39033;DHT22;24794;51.982;5.878;2023-02-28T00:09:22;4.70;99.20
39033;DHT22;24794;51.982;5.878;2023-02-28T00:10:28;4.70;99.20
39033;DHT22;24794;51.982;5.878;2023-02-28T00:11:28;4.70;99.30
39033;DHT22;24794;51.982;5.878;2023-02-28T00:12:29;4.70;99.20
39033;DHT22;24794;51.982;5.878;2023-02-28T00:13:30;4.70;99.20
39033;DHT22;24794;51.982;5.878;2023-02-28T00:14:31;4.70;99.20
39033;DHT22;24794;51.982;5.878;2023-02-28T00:15:32;4.80;99.20
39033;DHT22;24794;51.982;5.878;2023-02-28T00:16:33;4.80;99.20
39033;DHT22;24794;51.982;5.878;2023-02-28T00:17:34;4.80;99.20
39033;DHT22;24794;51.982;5.878;2023-02-28T00:18:35;4.80;99.20
39033;DHT22;24794;51.982;5.878;2023-02-28T00:19:35;4.80;99.20
39033;DHT22;24794;51.982;5.878;2023-02-28T00:20:36;4.80;99.20
39033;DHT22;24794;51.982;5.878;2023-02-28T00:21:36;4.80;99.20
39033;DHT22;24794;51.982;5.878;2023-02-28T00:22:45;4.90;99.20
39033;DHT22;24794;51.982;5.878;2023-02-28T00:23:46;4.90;99.10
39033;DHT22;24794;51.982;5.878;2023-02-28T00:24:47;4.90;99.10
39033;DHT22;24794;51.982;5.878;2023-02-28T00:25:47;4.90;99.10
39033;DHT22;24794;51.982;5.878;2023-02-28T00:26:48;4.90;99.00
39033;DHT22;24794;51.982;5.878;2023-02-28T00:27:49;4.90;99.00
39033;DHT22;24794;51.982;5.878;2023-02-28T00:28:52;4.90;99.00
39033;DHT22;24794;51.982;5.878;2023-02-28T00:29:53;4.90;99.00
39033;DHT22;24794;51.982;5.878;2023-02-28T00:30:54;4.90;99.10
39033;DHT22;24794;51.982;5.878;2023-02-28T00:31:55;4.90;99.10
39033;DHT22;24794;51.982;5.878;2023-02-28T00:32:55;4.90;99.10
39033;DHT22;24794;51.982;5.878;2023-02-28T00:33:56;4.90;99.10
39033;DHT22;24794;51.982;5.878;2023-02-28T00:34:56;4.90;99.10
39033;DHT22;24794;51.982;5.878;2023-02-28T00:36:06;5.00;99.20
39033;DHT22;24794;51.982;5.878;2023-02-28T00:37:09;5.00;99.20
39033;DHT22;24794;51.982;5.878;2023-02-28T00:38:10;5.00;99.20
39033;DHT22;24794;51.982;5.878;2023-02-28T00:39:11;5.00;99.20
39033;DHT22;24794;51.982;5.878;2023-02-28T00:40:12;5.00;99.20
39033;DHT22;24794;51.982;5.878;2023-02-28T00:41:13;5.00;99.10
39033;DHT22;24794;51.982;5.878;2023-02-28T00:42:13;5.00;99.20
39033;DHT22;24794;51.982;5.878;2023-02-28T00:43:14;5.00;99.10
39033;DHT22;24794;51.982;5.878;2023-02-28T00:44:14;5.00;99.10
39033;DHT22;24794;51.982;5.878;2023-02-28T00:45:15;5.00;99.10
39033;DHT22;24794;51.982;5.878;2023-02-28T00:46:15;5.00;99.10
39033;DHT22;24794;51.982;5.878;2023-02-28T00:47:16;5.00;99.10
39033;DHT22;24794;51.982;5.878;2023-02-28T00:48:17;5.00;99.10
39033;DHT22;24794;51.982;5.878;2023-02-28T00:49:17;5.00;99.10
39033;DHT22;24794;51.982;5.878;2023-02-28T00:50:19;5.10;99.10
39033;DHT22;24794;51.982;5.878;2023-02-28T00:51:20;5.00;99.10
39033;DHT22;24794;51.982;5.878;2023-02-28T00:52:21;5.00;99.00
39033;DHT22;24794;51.982;5.878;2023-02-28T00:53:21;5.10;99.30
39033;DHT22;24794;51.982;5.878;2023-02-28T00:54:23;5.10;99.00
39033;DHT22;24794;51.982;5.878;2023-02-28T00:55:24;5.10;99.10
39033;DHT22;24794;51.982;5.878;2023-02-28T00:56:24;5.10;99.00
39033;DHT22;24794;51.982;5.878;2023-02-28T00:57:25;5.10;99.00
39033;DHT22;24794;51.982;5.878;2023-02-28T00:58:26;5.10;99.00
39033;DHT22;24794;51.982;5.878;2023-02-28T00:59:27;5.10;99.00
39033;DHT22;24794;51.982;5.878;2023-02-28T01:00:28;5.10;99.00
39033;DHT22;24794;51.982;5.878;2023-02-28T01:01:28;5.10;99.00
39033;DHT22;24794;51.982;5.878;2023-02-28T01:02:29;5.10;99.00
39033;DHT22;24794;51.982;5.878;2023-02-28T01:03:29;5.10;98.90
39033;DHT22;24794;51.982;5.878;2023-02-28T01:04:30;5.00;98.80
39033;DHT22;24794;51.982;5.878;2023-02-28T01:05:30;5.00;98.80
39033;DHT22;24794;51.982;5.878;2023-02-28T01:06:31;5.00;98.80
39033;DHT22;24794;51.982;5.878;2023-02-28T01:07:32;5.00;98.80
39033;DHT22;24794;51.982;5.878;2023-02-28T01:08:33;5.00;98.80
39033;DHT22;24794;51.982;5.878;2023-02-28T01:09:33;5.00;98.80
39033;DHT22;24794;51.982;5.878;2023-02-28T01:10:34;5.00;98.80
39033;DHT22;24794;51.982;5.878;2023-02-28T01:11:36;5.00;98.80
39033;DHT22;24794;51.982;5.878;2023-02-28T01:12:37;5.00;98.80
39033;DHT22;24794;51.982;5.878;2023-02-28T01:13:38;5.10;98.90
39033;DHT22;24794;51.982;5.878;2023-02-28T01:14:38;5.00;98.90
39033;DHT22;24794;51.982;5.878;2023-02-28T01:15:43;5.10;98.90
39033;DHT22;24794;51.982;5.878;2023-02-28T01:16:44;5.10;98.90
39033;DHT22;24794;51.982;5.878;2023-02-28T01:17:45;5.10;98.90
39033;DHT22;24794;51.982;5.878;2023-02-28T01:18:45;5.10;98.90
39033;DHT22;24794;51.982;5.878;2023-02-28T01:19:46;5.10;99.20
39033;DHT22;24794;51.982;5.878;2023-02-28T01:20:47;5.10;98.90
39033;DHT22;24794;51.982;5.878;2023-02-28T01:21:47;5.10;98.90
39033;DHT22;24794;51.982;5.878;2023-02-28T01:22:48;5.10;98.90
39033;DHT22;24794;51.982;5.878;2023-02-28T01:23:49;5.10;98.90
39033;DHT22;24794;51.982;5.878;2023-02-28T01:24:50;5.10;98.90
39033;DHT22;24794;51.982;5.878;2023-02-28T01:25:51;5.10;98.90
39033;DHT22;24794;51.982;5.878;2023-02-28T01:26:53;5.10;98.90
39033;DHT22;24794;51.982;5.878;2023-02-28T01:27:53;5.00;98.90
39033;DHT22;24794;51.982;5.878;2023-02-28T01:28:55;5.10;99.00
39033;DHT22;24794;51.982;5.878;2023-02-28T01:29:55;5.10;99.00
39033;DHT22;24794;51.982;5.878;2023-02-28T01:30:56;5.10;99.00
39033;DHT22;24794;51.982;5.878;2023-02-28T01:31:56;5.10;99.00
39033;DHT22;24794;51.982;5.878;2023-02-28T01:33:00;5.10;99.10
39033;DHT22;24794;51.982;5.878;2023-02-28T01:34:01;5.00;99.10
39033;DHT22;24794;51.982;5.878;2023-02-28T01:35:01;5.10;99.10
39033;DHT22;24794;51.982;5.878;2023-02-28T01:36:05;5.00;99.10
39033;DHT22;24794;51.982;5.878;2023-02-28T01:37:06;5.00;99.20
39033;DHT22;24794;51.982;5.878;2023-02-28T01:38:07;5.00;99.20
39033;DHT22;24794;51.982;5.878;2023-02-28T01:39:07;5.00;99.20
39033;DHT22;24794;51.982;5.878;2023-02-28T01:40:08;5.00;99.20
39033;DHT22;24794;51.982;5.878;2023-02-28T01:41:24;5.00;99.30
39033;DHT22;24794;51.982;5.878;2023-02-28T01:42:25;5.00;99.30
39033;DHT22;24794;51.982;5.878;2023-02-28T01:43:28;5.00;99.30
39033;DHT22;24794;51.982;5.878;2023-02-28T01:45:57;5.00;99.30
39033;DHT22;24794;51.982;5.878;2023-02-28T01:46:57;5.00;99.30
39033;DHT22;24794;51.982;5.878;2023-02-28T01:48:01;5.00;99.40
39033;DHT22;24794;51.982;5.878;2023-02-28T01:49:04;5.00;99.40
39033;DHT22;24794;51.982;5.878;2023-02-28T01:50:09;5.00;99.40
39033;DHT22;24794;51.982;5.878;2023-02-28T01:51:20;5.00;99.50
39033;DHT22;24794;51.982;5.878;2023-02-28T01:52:22;5.00;99.50
39033;DHT22;24794;51.982;5.878;2023-02-28T01:53:31;5.00;99.50
39033;DHT22;24794;51.982;5.878;2023-02-28T01:54:34;5.00;99.60
39033;DHT22;24794;51.982;5.878;2023-02-28T01:55:35;5.00;99.60
39033;DHT22;24794;51.982;5.878;2023-02-28T01:56:37;5.00;99.60
39033;DHT22;24794;51.982;5.878;2023-02-28T01:57:45;5.00;99.70
39033;DHT22;24794;51.982;5.878;2023-02-28T01:58:48;5.00;99.70
39033;DHT22;24794;51.982;5.878;2023-02-28T01:59:57;5.00;99.70
39033;DHT22;24794;51.982;5.878;2023-02-28T02:00:59;5.00;99.70
39033;DHT22;24794;51.982;5.878;2023-02-28T02:02:01;5.00;99.70
39033;DHT22;24794;51.982;5.878;2023-02-28T02:03:08;5.00;99.70
39033;DHT22;24794;51.982;5.878;2023-02-28T02:04:10;5.00;99.70
39033;DHT22;24794;51.982;5.878;2023-02-28T02:05:24;5.00;99.70
39033;DHT22;24794;51.982;5.878;2023-02-28T02:06:27;5.00;99.70
39033;DHT22;24794;51.982;5.878;2023-02-28T02:07:32;5.00;99.70
39033;DHT22;24794;51.982;5.878;2023-02-28T02:08:33;5.00;99.70
39033;DHT22;24794;51.982;5.878;2023-02-28T02:09:34;5.00;99.60
39033;DHT22;24794;51.982;5.878;2023-02-28T02:10:39;5.10;99.70
39033;DHT22;24794;51.982;5.878;2023-02-28T02:11:43;5.00;99.60
39033;DHT22;24794;51.982;5.878;2023-02-28T02:15:26;5.00;99.60
39033;DHT22;24794;51.982;5.878;2023-02-28T02:17:51;5.00;99.50
39033;DHT22;24794;51.982;5.878;2023-02-28T02:24:49;5.00;99.50
39033;DHT22;24794;51.982;5.878;2023-02-28T02:26:35;4.90;99.50
39033;DHT22;24794;51.982;5.878;2023-02-28T02:29:15;4.90;99.50
39033;DHT22;24794;51.982;5.878;2023-02-28T02:34:55;4.90;99.50
39033;DHT22;24794;51.982;5.878;2023-02-28T02:39:52;4.80;99.40
39033;DHT22;24794;51.982;5.878;2023-02-28T02:43:02;4.80;99.40
39033;DHT22;24794;51.982;5.878;2023-02-28T02:45:30;4.80;99.30
39033;DHT22;24794;51.982;5.878;2023-02-28T02:46:42;4.80;99.30
39033;DHT22;24794;51.982;5.878;2023-02-28T02:47:44;4.80;99.40
39033;DHT22;24794;51.982;5.878;2023-02-28T02:48:46;4.80;99.40
39033;DHT22;24794;51.982;5.878;2023-02-28T02:49:53;4.80;99.40
39033;DHT22;24794;51.982;5.878;2023-02-28T02:51:00;4.80;99.40
39033;DHT22;24794;51.982;5.878;2023-02-28T02:52:05;4.80;99.40
39033;DHT22;24794;51.982;5.878;2023-02-28T02:53:07;4.80;99.40
39033;DHT22;24794;51.982;5.878;2023-02-28T02:54:14;4.80;99.30
39033;DHT22;24794;51.982;5.878;2023-02-28T02:55:17;4.80;99.30
39033;DHT22;24794;51.982;5.878;2023-02-28T02:56:20;4.80;99.30
39033;DHT22;24794;51.982;5.878;2023-02-28T02:57:36;4.90;99.20
39033;DHT22;24794;51.982;5.878;2023-02-28T02:58:41;4.80;99.10
39033;DHT22;24794;51.982;5.878;2023-02-28T02:59:43;4.90;99.00
39033;DHT22;24794;51.982;5.878;2023-02-28T03:00:53;4.90;99.00
39033;DHT22;24794;51.982;5.878;2023-02-28T03:01:57;4.90;99.00
39033;DHT22;24794;51.982;5.878;2023-02-28T03:03:01;4.90;99.00
39033;DHT22;24794;51.982;5.878;2023-02-28T03:04:08;4.90;98.90
39033;DHT22;24794;51.982;5.878;2023-02-28T03:05:19;4.80;98.80
39033;DHT22;24794;51.982;5.878;2023-02-28T03:06:21;4.90;98.80
39033;DHT22;24794;51.982;5.878;2023-02-28T03:07:22;4.90;98.70
39033;DHT22;24794;51.982;5.878;2023-02-28T03:08:23;4.90;98.60
39033;DHT22;24794;51.982;5.878;2023-02-28T03:09:25;4.90;98.50
39033;DHT22;24794;51.982;5.878;2023-02-28T03:10:48;4.90;98.70
39033;DHT22;24794;51.982;5.878;2023-02-28T03:11:52;4.90;98.40
39033;DHT22;24794;51.982;5.878;2023-02-28T03:13:08;4.80;98.30
39033;DHT22;24794;51.982;5.878;2023-02-28T03:14:22;4.90;98.60
39033;DHT22;24794;51.982;5.878;2023-02-28T03:15:33;4.90;98.30
39033;DHT22;24794;51.982;5.878;2023-02-28T03:18:01;4.80;97.90
39033;DHT22;24794;51.982;5.878;2023-02-28T03:20:27;4.80;97.90
39033;DHT22;24794;51.982;5.878;2023-02-28T03:24:04;4.80;97.80
39033;DHT22;24794;51.982;5.878;2023-02-28T03:25:19;4.80;97.70
39033;DHT22;24794;51.982;5.878;2023-02-28T03:26:26;4.70;97.60
39033;DHT22;24794;51.982;5.878;2023-02-28T03:30:06;4.70;97.60
39033;DHT22;24794;51.982;5.878;2023-02-28T03:31:15;4.70;97.50
39033;DHT22;24794;51.982;5.878;2023-02-28T03:33:38;4.70;97.50
39033;DHT22;24794;51.982;5.878;2023-02-28T03:34:51;4.70;97.40
39033;DHT22;24794;51.982;5.878;2023-02-28T03:37:04;4.60;97.30
39033;DHT22;24794;51.982;5.878;2023-02-28T03:38:20;4.70;97.30
39033;DHT22;24794;51.982;5.878;2023-02-28T03:39:36;4.70;97.30
39033;DHT22;24794;51.982;5.878;2023-02-28T03:40:39;4.70;97.20
39033;DHT22;24794;51.982;5.878;2023-02-28T03:41:55;4.60;97.10
39033;DHT22;24794;51.982;5.878;2023-02-28T03:43:02;4.60;97.00
39033;DHT22;24794;51.982;5.878;2023-02-28T03:44:07;4.60;96.90
39033;DHT22;24794;51.982;5.878;2023-02-28T03:45:15;4.60;96.80
39033;DHT22;24794;51.982;5.878;2023-02-28T03:46:20;4.60;96.70
39033;DHT22;24794;51.982;5.878;2023-02-28T03:47:37;4.60;96.70
39033;DHT22;24794;51.982;5.878;2023-02-28T03:48:45;4.50;96.60
39033;DHT22;24794;51.982;5.878;2023-02-28T03:50:10;4.60;96.70
39033;DHT22;24794;51.982;5.878;2023-02-28T03:51:17;4.60;96.70
39033;DHT22;24794;51.982;5.878;2023-02-28T03:52:21;4.60;96.60
39033;DHT22;24794;51.982;5.878;2023-02-28T03:53:29;4.60;96.50
39033;DHT22;24794;51.982;5.878;2023-02-28T03:54:41;4.60;96.50
39033;DHT22;24794;51.982;5.878;2023-02-28T03:55:47;4.60;96.40
39033;DHT22;24794;51.982;5.878;2023-02-28T03:56:52;4.60;96.30
39033;DHT22;24794;51.982;5.878;2023-02-28T03:59:37;4.70;96.10
39033;DHT22;24794;51.982;5.878;2023-02-28T04:00:46;4.70;96.10
39033;DHT22;24794;51.982;5.878;2023-02-28T04:01:49;4.70;96.10
39033;DHT22;24794;51.982;5.878;2023-02-28T04:02:50;4.70;96.20
39033;DHT22;24794;51.982;5.878;2023-02-28T04:03:53;4.70;96.20
39033;DHT22;24794;51.982;5.878;2023-02-28T04:04:53;4.70;96.30
39033;DHT22;24794;51.982;5.878;2023-02-28T04:05:55;4.70;96.30
39033;DHT22;24794;51.982;5.878;2023-02-28T04:07:03;4.70;96.30
39033;DHT22;24794;51.982;5.878;2023-02-28T04:08:07;4.70;96.30
39033;DHT22;24794;51.982;5.878;2023-02-28T04:09:11;4.80;96.30
39033;DHT22;24794;51.982;5.878;2023-02-28T04:10:13;4.80;96.30
39033;DHT22;24794;51.982;5.878;2023-02-28T04:12:25;4.80;96.30
39033;DHT22;24794;51.982;5.878;2023-02-28T04:13:26;4.80;96.30
39033;DHT22;24794;51.982;5.878;2023-02-28T04:14:27;4.80;96.20
39033;DHT22;24794;51.982;5.878;2023-02-28T04:15:27;4.80;96.20
39033;DHT22;24794;51.982;5.878;2023-02-28T04:16:29;4.80;96.20
39033;DHT22;24794;51.982;5.878;2023-02-28T04:17:29;4.80;96.00
39033;DHT22;24794;51.982;5.878;2023-02-28T04:18:30;4.80;96.00
39033;DHT22;24794;51.982;5.878;2023-02-28T04:19:31;4.90;96.00
39033;DHT22;24794;51.982;5.878;2023-02-28T04:20:31;4.80;95.90
39033;DHT22;24794;51.982;5.878;2023-02-28T04:21:43;4.80;95.80
39033;DHT22;24794;51.982;5.878;2023-02-28T04:22:43;4.90;95.90
39033;DHT22;24794;51.982;5.878;2023-02-28T04:23:44;4.90;95.90
39033;DHT22;24794;51.982;5.878;2023-02-28T04:24:45;4.90;95.90
39033;DHT22;24794;51.982;5.878;2023-02-28T04:25:45;4.90;95.90
39033;DHT22;24794;51.982;5.878;2023-02-28T04:26:48;4.80;96.00
39033;DHT22;24794;51.982;5.878;2023-02-28T04:27:49;4.80;96.00
39033;DHT22;24794;51.982;5.878;2023-02-28T04:28:50;4.80;96.00
39033;DHT22;24794;51.982;5.878;2023-02-28T04:29:50;4.80;96.10
39033;DHT22;24794;51.982;5.878;2023-02-28T04:31:04;4.80;96.10
39033;DHT22;24794;51.982;5.878;2023-02-28T04:32:05;4.80;96.10
39033;DHT22;24794;51.982;5.878;2023-02-28T04:33:06;4.70;96.00
39033;DHT22;24794;51.982;5.878;2023-02-28T04:34:06;4.70;96.00
39033;DHT22;24794;51.982;5.878;2023-02-28T04:35:07;4.70;96.00
39033;DHT22;24794;51.982;5.878;2023-02-28T04:36:08;4.70;96.10
39033;DHT22;24794;51.982;5.878;2023-02-28T04:37:09;4.70;96.10
39033;DHT22;24794;51.982;5.878;2023-02-28T04:38:09;4.70;96.20
39033;DHT22;24794;51.982;5.878;2023-02-28T04:39:10;4.70;96.20
39033;DHT22;24794;51.982;5.878;2023-02-28T04:40:11;4.60;96.30
39033;DHT22;24794;51.982;5.878;2023-02-28T04:41:12;4.60;96.30
39033;DHT22;24794;51.982;5.878;2023-02-28T04:42:13;4.60;96.40
39033;DHT22;24794;51.982;5.878;2023-02-28T04:43:14;4.60;96.40
39033;DHT22;24794;51.982;5.878;2023-02-28T04:44:15;4.60;96.40
39033;DHT22;24794;51.982;5.878;2023-02-28T04:45:16;4.50;96.40
39033;DHT22;24794;51.982;5.878;2023-02-28T04:46:17;4.50;96.50
39033;DHT22;24794;51.982;5.878;2023-02-28T04:47:18;4.50;96.60
39033;DHT22;24794;51.982;5.878;2023-02-28T04:48:19;4.50;96.60
39033;DHT22;24794;51.982;5.878;2023-02-28T04:49:20;4.50;96.70
39033;DHT22;24794;51.982;5.878;2023-02-28T04:50:20;4.50;96.70
39033;DHT22;24794;51.982;5.878;2023-02-28T04:51:21;4.40;96.80
39033;DHT22;24794;51.982;5.878;2023-02-28T04:52:22;4.40;96.80
39033;DHT22;24794;51.982;5.878;2023-02-28T04:53:23;4.40;96.80
39033;DHT22;24794;51.982;5.878;2023-02-28T04:54:23;4.40;96.90
39033;DHT22;24794;51.982;5.878;2023-02-28T04:55:24;4.40;97.20
39033;DHT22;24794;51.982;5.878;2023-02-28T04:56:25;4.40;97.00
39033;DHT22;24794;51.982;5.878;2023-02-28T04:57:25;4.40;97.10
39033;DHT22;24794;51.982;5.878;2023-02-28T04:58:26;4.40;97.10
39033;DHT22;24794;51.982;5.878;2023-02-28T04:59:28;4.30;97.10
39033;DHT22;24794;51.982;5.878;2023-02-28T05:00:28;4.30;97.10
39033;DHT22;24794;51.982;5.878;2023-02-28T05:01:31;4.30;97.20
39033;DHT22;24794;51.982;5.878;2023-02-28T05:02:34;4.30;97.20
39033;DHT22;24794;51.982;5.878;2023-02-28T05:03:35;4.20;97.30
39033;DHT22;24794;51.982;5.878;2023-02-28T05:04:36;4.20;97.30
39033;DHT22;24794;51.982;5.878;2023-02-28T05:05:37;4.20;97.40
39033;DHT22;24794;51.982;5.878;2023-02-28T05:06:38;4.20;97.40
39033;DHT22;24794;51.982;5.878;2023-02-28T05:07:38;4.20;97.50
39033;DHT22;24794;51.982;5.878;2023-02-28T05:08:39;4.20;97.50
39033;DHT22;24794;51.982;5.878;2023-02-28T05:09:40;4.20;97.60
39033;DHT22;24794;51.982;5.878;2023-02-28T05:10:41;4.20;97.60
39033;DHT22;24794;51.982;5.878;2023-02-28T05:11:41;4.20;97.70
39033;DHT22;24794;51.982;5.878;2023-02-28T05:12:42;4.20;97.70
39033;DHT22;24794;51.982;5.878;2023-02-28T05:13:43;4.20;97.70
39033;DHT22;24794;51.982;5.878;2023-02-28T05:14:43;4.20;97.70
39033;DHT22;24794;51.982;5.878;2023-02-28T05:15:44;4.10;97.70
39033;DHT22;24794;51.982;5.878;2023-02-28T05:16:45;4.20;97.70
39033;DHT22;24794;51.982;5.878;2023-02-28T05:17:45;4.20;97.80
39033;DHT22;24794;51.982;5.878;2023-02-28T05:18:46;4.20;97.80
39033;DHT22;24794;51.982;5.878;2023-02-28T05:19:46;4.20;97.90
39033;DHT22;24794;51.982;5.878;2023-02-28T05:20:47;4.20;97.90
39033;DHT22;24794;51.982;5.878;2023-02-28T05:21:51;4.10;98.20
39033;DHT22;24794;51.982;5.878;2023-02-28T05:22:52;4.20;98.00
39033;DHT22;24794;51.982;5.878;2023-02-28T05:23:53;4.10;98.00
39033;DHT22;24794;51.982;5.878;2023-02-28T05:24:55;4.10;98.00
39033;DHT22;24794;51.982;5.878;2023-02-28T05:25:56;4.20;98.00
39033;DHT22;24794;51.982;5.878;2023-02-28T05:26:56;4.10;98.00
39033;DHT22;24794;51.982;5.878;2023-02-28T05:27:57;4.10;98.00
39033;DHT22;24794;51.982;5.878;2023-02-28T05:28:57;4.10;98.00
39033;DHT22;24794;51.982;5.878;2023-02-28T05:29:59;4.10;98.00
39033;DHT22;24794;51.982;5.878;2023-02-28T05:30:59;4.10;98.00
39033;DHT22;24794;51.982;5.878;2023-02-28T05:32:00;4.10;98.10
39033;DHT22;24794;51.982;5.878;2023-02-28T05:33:00;4.10;98.10
39033;DHT22;24794;51.982;5.878;2023-02-28T05:34:01;4.10;98.20
39033;DHT22;24794;51.982;5.878;2023-02-28T05:35:02;4.10;98.10
39033;DHT22;24794;51.982;5.878;2023-02-28T05:36:03;4.10;98.20
39033;DHT22;24794;51.982;5.878;2023-02-28T05:37:04;4.10;98.20
39033;DHT22;24794;51.982;5.878;2023-02-28T05:38:05;4.10;98.20
39033;DHT22;24794;51.982;5.878;2023-02-28T05:39:06;4.10;98.20
39033;DHT22;24794;51.982;5.878;2023-02-28T05:40:08;4.10;98.20
39033;DHT22;24794;51.982;5.878;2023-02-28T05:41:12;4.20;98.30
39033;DHT22;24794;51.982;5.878;2023-02-28T05:42:12;4.20;98.30
39033;DHT22;24794;51.982;5.878;2023-02-28T05:43:13;4.20;98.30
39033;DHT22;24794;51.982;5.878;2023-02-28T05:44:13;4.20;98.30
39033;DHT22;24794;51.982;5.878;2023-02-28T05:45:15;4.20;98.30
39033;DHT22;24794;51.982;5.878;2023-02-28T05:46:16;4.20;98.30
39033;DHT22;24794;51.982;5.878;2023-02-28T05:47:17;4.20;98.30
39033;DHT22;24794;51.982;5.878;2023-02-28T05:48:17;4.20;98.20
39033;DHT22;24794;51.982;5.878;2023-02-28T05:49:18;4.20;98.20
39033;DHT22;24794;51.982;5.878;2023-02-28T05:50:19;4.20;98.20
39033;DHT22;24794;51.982;5.878;2023-02-28T05:51:19;4.20;98.20
39033;DHT22;24794;51.982;5.878;2023-02-28T05:52:20;4.20;98.20
39033;DHT22;24794;51.982;5.878;2023-02-28T05:53:21;4.20;98.20
39033;DHT22;24794;51.982;5.878;2023-02-28T05:54:21;4.20;98.20
39033;DHT22;24794;51.982;5.878;2023-02-28T05:55:22;4.20;98.30
39033;DHT22;24794;51.982;5.878;2023-02-28T05:56:22;4.20;98.30
39033;DHT22;24794;51.982;5.878;2023-02-28T05:57:24;4.10;98.30
39033;DHT22;24794;51.982;5.878;2023-02-28T05:58:25;4.10;98.40
39033;DHT22;24794;51.982;5.878;2023-02-28T05:59:29;4.10;98.40
39033;DHT22;24794;51.982;5.878;2023-02-28T06:00:30;4.10;98.50
39033;DHT22;24794;51.982;5.878;2023-02-28T06:02:35;4.10;98.60
39033;DHT22;24794;51.982;5.878;2023-02-28T06:03:36;4.20;98.60
39033;DHT22;24794;51.982;5.878;2023-02-28T06:04:36;4.20;98.60
39033;DHT22;24794;51.982;5.878;2023-02-28T06:05:37;4.20;98.60
39033;DHT22;24794;51.982;5.878;2023-02-28T06:06:38;4.20;98.60
39033;DHT22;24794;51.982;5.878;2023-02-28T06:07:39;4.20;98.60
39033;DHT22;24794;51.982;5.878;2023-02-28T06:08:40;4.20;98.70
39033;DHT22;24794;51.982;5.878;2023-02-28T06:09:40;4.20;98.70
39033;DHT22;24794;51.982;5.878;2023-02-28T06:10:41;4.20;98.70
39033;DHT22;24794;51.982;5.878;2023-02-28T06:11:42;4.20;98.70
39033;DHT22;24794;51.982;5.878;2023-02-28T06:12:42;4.30;98.70
39033;DHT22;24794;51.982;5.878;2023-02-28T06:13:43;4.30;98.60
39033;DHT22;24794;51.982;5.878;2023-02-28T06:14:44;4.30;98.60
39033;DHT22;24794;51.982;5.878;2023-02-28T06:15:44;4.40;98.70
39033;DHT22;24794;51.982;5.878;2023-02-28T06:16:45;4.40;98.60
39033;DHT22;24794;51.982;5.878;2023-02-28T06:17:46;4.40;98.60
39033;DHT22;24794;51.982;5.878;2023-02-28T06:18:47;4.40;98.60
39033;DHT22;24794;51.982;5.878;2023-02-28T06:19:47;4.40;98.60
39033;DHT22;24794;51.982;5.878;2023-02-28T06:20:55;4.40;98.50
39033;DHT22;24794;51.982;5.878;2023-02-28T06:21:56;4.50;98.50
39033;DHT22;24794;51.982;5.878;2023-02-28T06:22:57;4.50;98.50
39033;DHT22;24794;51.982;5.878;2023-02-28T06:24:01;4.50;98.50
39033;DHT22;24794;51.982;5.878;2023-02-28T06:25:02;4.50;98.40
39033;DHT22;24794;51.982;5.878;2023-02-28T06:26:03;4.60;98.30
39033;DHT22;24794;51.982;5.878;2023-02-28T06:27:04;4.60;98.10
39033;DHT22;24794;51.982;5.878;2023-02-28T06:28:05;4.50;98.00
39033;DHT22;24794;51.982;5.878;2023-02-28T06:29:06;4.50;97.90
39033;DHT22;24794;51.982;5.878;2023-02-28T06:30:08;4.50;97.90
39033;DHT22;24794;51.982;5.878;2023-02-28T06:31:10;4.50;97.80
39033;DHT22;24794;51.982;5.878;2023-02-28T06:32:11;4.60;97.70
39033;DHT22;24794;51.982;5.878;2023-02-28T06:33:12;4.60;97.70
39033;DHT22;24794;51.982;5.878;2023-02-28T06:34:13;4.50;97.60
39033;DHT22;24794;51.982;5.878;2023-02-28T06:35:14;4.50;97.60
39033;DHT22;24794;51.982;5.878;2023-02-28T06:36:15;4.60;97.60
39033;DHT22;24794;51.982;5.878;2023-02-28T06:37:17;4.60;97.60
39033;DHT22;24794;51.982;5.878;2023-02-28T06:38:18;4.60;97.50
39033;DHT22;24794;51.982;5.878;2023-02-28T06:39:19;4.60;97.50
39033;DHT22;24794;51.982;5.878;2023-02-28T06:40:20;4.60;97.40
39033;DHT22;24794;51.982;5.878;2023-02-28T06:41:23;4.60;97.40
39033;DHT22;24794;51.982;5.878;2023-02-28T06:42:24;4.50;97.30
39033;DHT22;24794;51.982;5.878;2023-02-28T06:43:34;4.50;97.10
39033;DHT22;24794;51.982;5.878;2023-02-28T06:44:35;4.50;97.10
39033;DHT22;24794;51.982;5.878;2023-02-28T06:45:35;4.50;97.10
39033;DHT22;24794;51.982;5.878;2023-02-28T06:46:36;4.50;97.10
39033;DHT22;24794;51.982;5.878;2023-02-28T06:47:40;4.50;97.00
39033;DHT22;24794;51.982;5.878;2023-02-28T06:48:42;4.60;96.90
39033;DHT22;24794;51.982;5.878;2023-02-28T06:49:43;4.60;96.80
39033;DHT22;24794;51.982;5.878;2023-02-28T06:50:45;4.60;96.80
39033;DHT22;24794;51.982;5.878;2023-02-28T06:51:47;4.60;96.70
39033;DHT22;24794;51.982;5.878;2023-02-28T06:52:47;4.60;96.60
39033;DHT22;24794;51.982;5.878;2023-02-28T06:53:48;4.60;96.60
39033;DHT22;24794;51.982;5.878;2023-02-28T06:54:49;4.60;96.50
39033;DHT22;24794;51.982;5.878;2023-02-28T06:56:03;4.60;96.30
39033;DHT22;24794;51.982;5.878;2023-02-28T06:57:04;4.70;96.30
39033;DHT22;24794;51.982;5.878;2023-02-28T06:58:05;4.60;96.30
39033;DHT22;24794;51.982;5.878;2023-02-28T06:59:15;4.70;96.20
39033;DHT22;24794;51.982;5.878;2023-02-28T07:00:16;4.70;96.20
39033;DHT22;24794;51.982;5.878;2023-02-28T07:01:17;4.70;96.10
39033;DHT22;24794;51.982;5.878;2023-02-28T07:02:17;4.70;96.00
39033;DHT22;24794;51.982;5.878;2023-02-28T07:03:18;4.70;96.00
39033;DHT22;24794;51.982;5.878;2023-02-28T07:04:19;4.70;96.00
39033;DHT22;24794;51.982;5.878;2023-02-28T07:05:19;4.70;95.90
39033;DHT22;24794;51.982;5.878;2023-02-28T07:06:21;4.70;95.90
39033;DHT22;24794;51.982;5.878;2023-02-28T07:07:25;4.70;95.70
39033;DHT22;24794;51.982;5.878;2023-02-28T07:08:26;4.70;95.40
39033;DHT22;24794;51.982;5.878;2023-02-28T07:09:27;4.70;95.40
39033;DHT22;24794;51.982;5.878;2023-02-28T07:10:30;4.70;95.30
39033;DHT22;24794;51.982;5.878;2023-02-28T07:11:31;4.70;95.30
39033;DHT22;24794;51.982;5.878;2023-02-28T07:12:32;4.70;95.30
39033;DHT22;24794;51.982;5.878;2023-02-28T07:13:32;4.70;95.20
39033;DHT22;24794;51.982;5.878;2023-02-28T07:14:33;4.70;95.10
39033;DHT22;24794;51.982;5.878;2023-02-28T07:15:34;4.70;95.00
39033;DHT22;24794;51.982;5.878;2023-02-28T07:16:35;4.70;95.00
39033;DHT22;24794;51.982;5.878;2023-02-28T07:17:36;4.70;94.90
39033;DHT22;24794;51.982;5.878;2023-02-28T07:18:37;4.70;94.80
39033;DHT22;24794;51.982;5.878;2023-02-28T07:19:41;4.70;94.70
39033;DHT22;24794;51.982;5.878;2023-02-28T07:20:41;4.60;94.70